Time;durP1;ratioP1;P1;durP2;ratioP2;P2;SDS_P1;SDS_P2;PMS_P1;PMS_P2;Temp;Humidity;BMP_temperature;BMP_pressure;BME280_temperature;BME280_humidity;BME280_pressure;Samples;Min_cycle;Max_cycle;Signal;HPM_P1;HPM_P2
2022/10/14 00:01:59;;;;;;;;;;;12.60;99.90;;;;;;5098854;27;37764;-59
2022/10/14 00:04:28;;;;;;;;;;;12.60;99.90;;;;;;5103398;27;37054;-59
2022/10/14 00:06:56;;;;;;;;;;;12.60;99.90;;;;;;5102947;27;37585;-59
2022/10/14 00:09:23;;;;;;;;;;;12.60;99.90;;;;;;5104616;27;40947;-59
2022/10/14 00:11:50;;;;;;;;;;;12.60;99.90;;;;;;5106221;27;37635;-59
2022/10/14 00:14:18;;;;;;;;;;;12.60;99.90;;;;;;5103775;27;35875;-59
2022/10/14 00:16:47;;;;;;;;;;;12.60;99.90;;;;;;5105930;27;39471;-58
2022/10/14 00:19:14;;;;;;;;;;;12.50;99.90;;;;;;5104469;27;37729;-59
2022/10/14 00:21:44;;;;;;;;;;;12.50;99.90;;;;;;5104321;27;38731;-59
2022/10/14 00:24:11;;;;;;;;;;;12.50;99.90;;;;;;5103847;27;36681;-59
2022/10/14 00:26:39;;;;;;;;;;;12.50;99.90;;;;;;5104115;27;38809;-59
2022/10/14 00:29:07;;;;;;;;;;;12.40;99.90;;;;;;5103817;27;37312;-59
2022/10/14 00:31:34;;;;;;;;;;;12.50;99.90;;;;;;5103336;27;39195;-59
2022/10/14 00:34:01;;;;;;;;;;;12.50;99.90;;;;;;5103937;27;37236;-59
2022/10/14 00:36:28;;;;;;;;;;;12.40;99.90;;;;;;5103215;27;37525;-59
2022/10/14 00:38:56;;;;;;;;;;;12.40;99.90;;;;;;5104532;27;38183;-60
2022/10/14 00:41:25;;;;;;;;;;;12.40;99.90;;;;;;5104451;27;37305;-59
2022/10/14 00:43:54;;;;;;;;;;;12.40;99.90;;;;;;5104528;27;35746;-59
2022/10/14 00:46:21;;;;;;;;;;;12.40;99.90;;;;;;5103087;27;37097;-59
2022/10/14 00:48:48;;;;;;;;;;;12.30;99.90;;;;;;5104829;27;39234;-59
2022/10/14 00:51:15;;;;;;;;;;;12.30;99.90;;;;;;5104760;27;37574;-59
2022/10/14 00:53:43;;;;;;;;;;;12.30;99.90;;;;;;5105068;27;36536;-59
2022/10/14 00:56:13;;;;;;;;;;;12.30;99.90;;;;;;5105295;27;38325;-58
2022/10/14 00:58:40;;;;;;;;;;;12.30;99.90;;;;;;5103996;27;38009;-59
2022/10/14 01:01:07;;;;;;;;;;;12.30;99.90;;;;;;5104337;27;37303;-59
2022/10/14 01:03:34;;;;;;;;;;;12.30;99.90;;;;;;5104386;27;37028;-59
2022/10/14 01:06:05;;;;;;;;;;;12.20;99.90;;;;;;5103781;27;37671;-59
2022/10/14 01:08:35;;;;;;;;;;;12.30;99.90;;;;;;5104307;27;36649;-59
2022/10/14 01:11:07;;;;;;;;;;;12.20;99.90;;;;;;5107815;27;37787;-59
2022/10/14 01:13:37;;;;;;;;;;;12.20;99.90;;;;;;5107547;27;36841;-59
2022/10/14 01:16:09;;;;;;;;;;;12.20;99.90;;;;;;5108471;27;37398;-59
2022/10/14 01:18:41;;;;;;;;;;;12.20;99.90;;;;;;5107849;27;38198;-59
2022/10/14 01:21:11;;;;;;;;;;;12.20;99.90;;;;;;5106102;27;39420;-59
2022/10/14 01:24:00;;;;;;;;;;;12.20;99.90;;;;;;5108227;27;35047;-59
2022/10/14 01:26:40;;;;;;;;;;;12.20;99.90;;;;;;5107799;27;37729;-59
2022/10/14 01:29:17;;;;;;;;;;;12.10;99.90;;;;;;5108155;27;38161;-59
2022/10/14 01:31:47;;;;;;;;;;;12.10;99.90;;;;;;5106223;27;38539;-59
2022/10/14 01:34:19;;;;;;;;;;;12.10;99.90;;;;;;5108036;27;36027;-59
2022/10/14 01:36:48;;;;;;;;;;;12.20;99.90;;;;;;5107857;27;38047;-59
2022/10/14 01:39:17;;;;;;;;;;;12.20;99.90;;;;;;5107886;27;38120;-59
2022/10/14 01:41:46;;;;;;;;;;;12.10;99.90;;;;;;5105802;27;38360;-58
2022/10/14 01:44:15;;;;;;;;;;;12.10;99.90;;;;;;5108163;27;37702;-59
2022/10/14 01:46:44;;;;;;;;;;;12.20;99.90;;;;;;5107359;27;37959;-59
2022/10/14 01:49:14;;;;;;;;;;;12.10;99.90;;;;;;5108729;27;37735;-59
2022/10/14 01:51:44;;;;;;;;;;;12.10;99.90;;;;;;5108472;27;38223;-59
2022/10/14 01:54:13;;;;;;;;;;;12.10;99.90;;;;;;5106807;27;36511;-59
2022/10/14 01:56:42;;;;;;;;;;;12.10;99.90;;;;;;5107997;27;40154;-59
2022/10/14 01:59:11;;;;;;;;;;;12.10;99.90;;;;;;5107082;27;39173;-59
2022/10/14 02:01:38;;;;;;;;;;;12.00;99.90;;;;;;5107296;27;37417;-58
2022/10/14 02:04:14;;;;;;;;;;;12.10;99.90;;;;;;5105234;27;36220;-59
2022/10/14 02:06:43;;;;;;;;;;;12.10;99.90;;;;;;5107030;27;37835;-59
2022/10/14 02:09:14;;;;;;;;;;;12.10;99.90;;;;;;5107923;27;39630;-59
2022/10/14 02:11:45;;;;;;;;;;;12.00;99.90;;;;;;5107970;27;37828;-59
2022/10/14 02:14:20;;;;;;;;;;;12.00;99.90;;;;;;5107583;27;37118;-59
2022/10/14 02:16:49;;;;;;;;;;;12.00;99.90;;;;;;5107224;27;38439;-59
2022/10/14 02:19:23;;;;;;;;;;;12.00;99.90;;;;;;5108477;27;39103;-59
2022/10/14 02:21:53;;;;;;;;;;;12.00;99.90;;;;;;5106754;27;37743;-59
2022/10/14 02:24:24;;;;;;;;;;;12.00;99.90;;;;;;5106703;27;38625;-59
2022/10/14 02:26:52;;;;;;;;;;;12.00;99.90;;;;;;5106999;27;37931;-59
2022/10/14 02:29:19;;;;;;;;;;;12.00;99.90;;;;;;5106726;27;39548;-59
2022/10/14 02:31:47;;;;;;;;;;;11.90;99.90;;;;;;5106871;27;36366;-58
2022/10/14 02:34:16;;;;;;;;;;;11.90;99.90;;;;;;5107261;27;35985;-59
2022/10/14 02:36:45;;;;;;;;;;;11.90;99.90;;;;;;5106493;27;37556;-59
2022/10/14 02:39:13;;;;;;;;;;;11.90;99.90;;;;;;5107652;27;37321;-59
2022/10/14 02:41:40;;;;;;;;;;;11.90;99.90;;;;;;5106798;27;36258;-58
2022/10/14 02:44:08;;;;;;;;;;;11.90;99.90;;;;;;5106594;27;36125;-59
2022/10/14 02:46:35;;;;;;;;;;;11.80;99.90;;;;;;5105106;27;37456;-58
2022/10/14 02:49:02;;;;;;;;;;;11.80;99.90;;;;;;5107432;27;37025;-59
2022/10/14 02:51:29;;;;;;;;;;;11.80;99.90;;;;;;5106208;27;38437;-59
2022/10/14 02:54:00;;;;;;;;;;;11.90;99.90;;;;;;5105926;27;36697;-58
2022/10/14 02:56:27;;;;;;;;;;;11.80;99.90;;;;;;5107105;27;37710;-58
2022/10/14 02:58:54;;;;;;;;;;;11.80;99.90;;;;;;5106399;27;37209;-59
2022/10/14 03:01:21;;;;;;;;;;;11.90;99.90;;;;;;5107526;27;37712;-58
2022/10/14 03:03:48;;;;;;;;;;;11.80;99.90;;;;;;5105929;27;36129;-59
2022/10/14 03:06:15;;;;;;;;;;;11.80;99.90;;;;;;5106837;27;37815;-59
2022/10/14 03:08:42;;;;;;;;;;;11.80;99.90;;;;;;5110044;27;38126;-58
2022/10/14 03:11:10;;;;;;;;;;;11.80;99.90;;;;;;5108975;27;38359;-59
2022/10/14 03:13:37;;;;;;;;;;;11.80;99.90;;;;;;5109968;27;36928;-58
2022/10/14 03:16:05;;;;;;;;;;;11.80;99.90;;;;;;5109615;27;36603;-59
2022/10/14 03:18:32;;;;;;;;;;;11.80;99.90;;;;;;5109860;27;39074;-59
2022/10/14 03:20:59;;;;;;;;;;;11.80;99.90;;;;;;5108408;27;37984;-58
2022/10/14 03:23:26;;;;;;;;;;;11.70;99.90;;;;;;5109149;27;36894;-59
2022/10/14 03:25:53;;;;;;;;;;;11.70;99.90;;;;;;5108609;27;39174;-59
2022/10/14 03:28:21;;;;;;;;;;;11.80;99.90;;;;;;5108892;27;38038;-58
2022/10/14 03:30:48;;;;;;;;;;;11.70;99.90;;;;;;5109535;27;37557;-59
2022/10/14 03:33:15;;;;;;;;;;;11.70;99.90;;;;;;5109256;27;37232;-58
2022/10/14 03:35:42;;;;;;;;;;;11.70;99.90;;;;;;5109326;27;38310;-59
2022/10/14 03:38:09;;;;;;;;;;;11.70;99.90;;;;;;5109293;27;38482;-58
2022/10/14 03:40:36;;;;;;;;;;;11.70;99.90;;;;;;5109225;27;39627;-59
2022/10/14 03:43:03;;;;;;;;;;;11.70;99.90;;;;;;5108732;27;36411;-58
2022/10/14 03:45:31;;;;;;;;;;;11.60;99.90;;;;;;5108884;27;38071;-59
2022/10/14 03:47:58;;;;;;;;;;;11.60;99.90;;;;;;5108769;27;38585;-59
2022/10/14 03:50:25;;;;;;;;;;;11.60;99.90;;;;;;5106091;27;37882;-58
2022/10/14 03:52:52;;;;;;;;;;;11.60;99.90;;;;;;5108823;27;35894;-57
2022/10/14 03:55:19;;;;;;;;;;;11.60;99.90;;;;;;5108865;27;38426;-57
2022/10/14 03:57:46;;;;;;;;;;;11.60;99.90;;;;;;5108819;27;39139;-57
2022/10/14 04:00:14;;;;;;;;;;;11.60;99.90;;;;;;5107993;27;37740;-57
2022/10/14 04:02:42;;;;;;;;;;;11.60;99.90;;;;;;5108518;27;36102;-57
2022/10/14 04:05:09;;;;;;;;;;;11.60;99.90;;;;;;5106863;27;36377;-58
2022/10/14 04:07:36;;;;;;;;;;;11.60;99.90;;;;;;5108477;27;38057;-57
2022/10/14 04:10:04;;;;;;;;;;;11.60;99.90;;;;;;5108317;27;36385;-57
2022/10/14 04:12:31;;;;;;;;;;;11.60;99.90;;;;;;5108308;27;36510;-58
2022/10/14 04:14:58;;;;;;;;;;;11.60;99.90;;;;;;5108988;27;38748;-57
2022/10/14 04:17:25;;;;;;;;;;;11.60;99.90;;;;;;5108925;27;37764;-57
2022/10/14 04:19:53;;;;;;;;;;;11.70;99.90;;;;;;5108045;27;39052;-57
2022/10/14 04:22:21;;;;;;;;;;;11.70;99.90;;;;;;5107947;27;37451;-58
2022/10/14 04:24:48;;;;;;;;;;;11.70;99.90;;;;;;5108295;27;36508;-58
2022/10/14 04:27:16;;;;;;;;;;;11.70;99.90;;;;;;5108418;27;39333;-57
2022/10/14 04:29:43;;;;;;;;;;;11.70;99.90;;;;;;5107158;27;37347;-57
2022/10/14 04:32:10;;;;;;;;;;;11.70;99.90;;;;;;5106159;27;38001;-57
2022/10/14 04:34:37;;;;;;;;;;;11.70;99.90;;;;;;5106385;27;37667;-57
2022/10/14 04:37:05;;;;;;;;;;;11.70;99.90;;;;;;5106261;27;37845;-57
2022/10/14 04:39:33;;;;;;;;;;;11.70;99.90;;;;;;5107504;27;37861;-57
2022/10/14 04:42:00;;;;;;;;;;;11.70;99.90;;;;;;5108890;27;36949;-57
2022/10/14 04:44:27;;;;;;;;;;;11.70;99.90;;;;;;5108529;27;37742;-57
2022/10/14 04:46:54;;;;;;;;;;;11.70;99.90;;;;;;5106604;27;39656;-58
2022/10/14 04:49:21;;;;;;;;;;;11.70;99.90;;;;;;5107891;27;36138;-57
2022/10/14 04:51:48;;;;;;;;;;;11.60;99.90;;;;;;5107720;27;36111;-57
2022/10/14 04:54:16;;;;;;;;;;;11.60;99.90;;;;;;5106288;27;36480;-57
2022/10/14 04:56:43;;;;;;;;;;;11.60;99.90;;;;;;5107738;27;36994;-57
2022/10/14 04:59:10;;;;;;;;;;;11.60;99.90;;;;;;5107697;27;38626;-57
2022/10/14 05:01:37;;;;;;;;;;;11.60;99.90;;;;;;5108426;27;35142;-57
2022/10/14 05:04:05;;;;;;;;;;;11.60;99.90;;;;;;5107429;27;38473;-57
2022/10/14 05:06:32;;;;;;;;;;;11.60;99.90;;;;;;5108353;27;38187;-57
2022/10/14 05:08:59;;;;;;;;;;;11.60;99.90;;;;;;5107039;27;38224;-57
2022/10/14 05:11:27;;;;;;;;;;;11.60;99.90;;;;;;5107865;27;36202;-57
2022/10/14 05:13:54;;;;;;;;;;;11.60;99.90;;;;;;5108134;27;37856;-57
2022/10/14 05:16:21;;;;;;;;;;;11.60;99.90;;;;;;5107458;27;40725;-57
2022/10/14 05:18:48;;;;;;;;;;;11.60;99.90;;;;;;5107995;27;37649;-57
2022/10/14 05:21:15;;;;;;;;;;;11.60;99.90;;;;;;5108137;27;38230;-57
2022/10/14 05:23:42;;;;;;;;;;;11.60;99.90;;;;;;5107577;27;39305;-57
2022/10/14 05:26:09;;;;;;;;;;;11.60;99.90;;;;;;5107087;27;38768;-57
2022/10/14 05:28:38;;;;;;;;;;;11.60;99.90;;;;;;5107432;27;37642;-58
2022/10/14 05:31:05;;;;;;;;;;;11.50;99.90;;;;;;5106949;27;36522;-57
2022/10/14 05:33:32;;;;;;;;;;;11.60;99.90;;;;;;5107400;27;36607;-57
2022/10/14 05:35:59;;;;;;;;;;;11.60;99.90;;;;;;5089444;27;38508;-57
2022/10/14 05:38:26;;;;;;;;;;;11.50;99.90;;;;;;5101005;27;36280;-58
2022/10/14 05:40:54;;;;;;;;;;;11.60;99.90;;;;;;5103330;27;36473;-58
2022/10/14 05:43:21;;;;;;;;;;;11.60;99.90;;;;;;5102448;27;38836;-57
2022/10/14 05:45:50;;;;;;;;;;;11.60;99.90;;;;;;5103589;27;38413;-57
2022/10/14 05:48:17;;;;;;;;;;;11.60;99.90;;;;;;5103271;27;37119;-57
2022/10/14 05:50:43;;;;;;;;;;;11.60;99.90;;;;;;5103027;27;37035;-57
2022/10/14 05:53:11;;;;;;;;;;;11.60;99.90;;;;;;5101837;27;37302;-57
2022/10/14 05:55:38;;;;;;;;;;;11.60;99.90;;;;;;5102178;27;37871;-57
2022/10/14 05:58:05;;;;;;;;;;;11.60;99.90;;;;;;5105551;27;37383;-57
2022/10/14 06:00:32;;;;;;;;;;;11.60;99.90;;;;;;5105764;27;36247;-58
2022/10/14 06:03:00;;;;;;;;;;;11.70;99.90;;;;;;5104848;27;39376;-57
2022/10/14 06:05:27;;;;;;;;;;;11.60;99.90;;;;;;5105626;27;37046;-58
2022/10/14 06:07:54;;;;;;;;;;;11.60;99.90;;;;;;5106289;27;40819;-57
2022/10/14 06:10:21;;;;;;;;;;;11.60;99.90;;;;;;5106496;27;35192;-59
2022/10/14 06:12:48;;;;;;;;;;;11.60;99.90;;;;;;5103270;27;38209;-59
2022/10/14 06:15:15;;;;;;;;;;;11.70;99.90;;;;;;5104435;27;38135;-58
2022/10/14 06:17:42;;;;;;;;;;;11.70;99.90;;;;;;5105096;27;37957;-58
2022/10/14 06:20:11;;;;;;;;;;;11.70;99.90;;;;;;5106830;27;36115;-58
2022/10/14 06:22:38;;;;;;;;;;;11.70;99.90;;;;;;5105157;27;36400;-57
2022/10/14 06:25:05;;;;;;;;;;;11.70;99.90;;;;;;5105893;27;39880;-58
2022/10/14 06:27:32;;;;;;;;;;;11.70;99.90;;;;;;5104657;27;38681;-58
2022/10/14 06:29:59;;;;;;;;;;;11.70;99.90;;;;;;5108472;27;39469;-58
2022/10/14 06:32:26;;;;;;;;;;;11.70;99.90;;;;;;5109779;27;38438;-58
2022/10/14 06:34:53;;;;;;;;;;;11.70;99.90;;;;;;5110024;27;37407;-58
2022/10/14 06:37:22;;;;;;;;;;;11.70;99.90;;;;;;5108872;27;37486;-57
2022/10/14 06:39:49;;;;;;;;;;;11.70;99.90;;;;;;5108824;27;36473;-58
2022/10/14 06:42:16;;;;;;;;;;;11.80;99.90;;;;;;5109978;27;41446;-58
2022/10/14 06:44:43;;;;;;;;;;;11.80;99.90;;;;;;5108992;27;38502;-59
2022/10/14 06:47:10;;;;;;;;;;;11.80;99.90;;;;;;5109630;27;39384;-59
2022/10/14 06:49:37;;;;;;;;;;;11.80;99.90;;;;;;5109689;27;36149;-59
2022/10/14 06:52:04;;;;;;;;;;;11.90;99.90;;;;;;5109913;27;37660;-59
2022/10/14 06:54:32;;;;;;;;;;;11.80;99.90;;;;;;5108731;27;38376;-59
2022/10/14 06:56:59;;;;;;;;;;;11.90;99.90;;;;;;5108700;27;38216;-59
2022/10/14 06:59:27;;;;;;;;;;;11.80;99.90;;;;;;5107717;27;35925;-59
2022/10/14 07:01:54;;;;;;;;;;;11.80;99.90;;;;;;5109214;27;39241;-58
2022/10/14 07:04:22;;;;;;;;;;;11.80;99.90;;;;;;5109265;27;39457;-59
2022/10/14 07:06:49;;;;;;;;;;;11.90;99.90;;;;;;5109418;27;39303;-59
2022/10/14 07:09:16;;;;;;;;;;;11.90;99.90;;;;;;5109433;27;37263;-59
2022/10/14 07:11:44;;;;;;;;;;;11.90;99.90;;;;;;5109202;27;37269;-59
2022/10/14 07:14:11;;;;;;;;;;;12.00;99.90;;;;;;5109852;27;37643;-59
2022/10/14 07:16:38;;;;;;;;;;;12.00;99.90;;;;;;5109831;27;37654;-59
2022/10/14 07:19:05;;;;;;;;;;;12.00;99.90;;;;;;5109833;27;38418;-58
2022/10/14 07:21:32;;;;;;;;;;;12.00;99.90;;;;;;5109851;27;38341;-58
2022/10/14 07:23:59;;;;;;;;;;;12.00;99.90;;;;;;5109828;27;37714;-58
2022/10/14 07:26:26;;;;;;;;;;;12.00;99.90;;;;;;5108014;27;37394;-59
2022/10/14 07:28:55;;;;;;;;;;;12.10;99.90;;;;;;5109664;27;35699;-59
2022/10/14 07:31:22;;;;;;;;;;;12.00;99.90;;;;;;5108432;27;37802;-59
2022/10/14 07:33:49;;;;;;;;;;;12.10;99.90;;;;;;5108929;27;39721;-58
2022/10/14 07:36:17;;;;;;;;;;;12.10;99.90;;;;;;5109862;27;36412;-59
2022/10/14 07:38:45;;;;;;;;;;;12.10;99.90;;;;;;5110418;27;36173;-59
2022/10/14 07:41:16;;;;;;;;;;;12.10;99.90;;;;;;5108878;27;40051;-59
2022/10/14 07:43:44;;;;;;;;;;;12.10;99.90;;;;;;5107164;27;38550;-59
2022/10/14 07:46:13;;;;;;;;;;;12.10;99.90;;;;;;5109054;27;37711;-59
2022/10/14 07:48:40;;;;;;;;;;;12.10;99.90;;;;;;5109898;27;36079;-59
2022/10/14 07:51:08;;;;;;;;;;;12.10;99.90;;;;;;5110031;27;36445;-59
2022/10/14 07:53:36;;;;;;;;;;;12.20;99.90;;;;;;5109654;27;38691;-59
2022/10/14 07:56:03;;;;;;;;;;;12.20;99.90;;;;;;5109582;27;37543;-59
2022/10/14 07:58:31;;;;;;;;;;;12.20;99.90;;;;;;5110252;27;36066;-59
2022/10/14 08:00:58;;;;;;;;;;;12.20;99.90;;;;;;5109768;27;40677;-59
2022/10/14 08:03:26;;;;;;;;;;;12.20;99.90;;;;;;5110166;27;40315;-59
2022/10/14 08:06:00;;;;;;;;;;;12.20;99.90;;;;;;5109793;27;37751;-57
2022/10/14 08:08:28;;;;;;;;;;;12.20;99.90;;;;;;5110316;27;36811;-58
2022/10/14 08:11:01;;;;;;;;;;;12.30;99.90;;;;;;5105192;27;36419;-57
2022/10/14 08:13:29;;;;;;;;;;;12.30;99.90;;;;;;5109100;27;38158;-58
2022/10/14 08:15:56;;;;;;;;;;;12.30;99.90;;;;;;5109444;27;38042;-58
2022/10/14 08:18:23;;;;;;;;;;;12.30;99.90;;;;;;5109649;27;36699;-57
2022/10/14 08:20:51;;;;;;;;;;;12.40;99.90;;;;;;5108918;27;38447;-57
2022/10/14 08:23:18;;;;;;;;;;;12.30;99.90;;;;;;5108744;27;38150;-59
2022/10/14 08:25:46;;;;;;;;;;;12.40;99.90;;;;;;5108809;27;37137;-59
2022/10/14 08:28:13;;;;;;;;;;;12.40;99.90;;;;;;5109379;27;36531;-60
2022/10/14 08:30:40;;;;;;;;;;;12.40;99.90;;;;;;5108854;27;36509;-59
2022/10/14 08:33:07;;;;;;;;;;;12.40;99.90;;;;;;5109463;27;37762;-59
2022/10/14 08:35:34;;;;;;;;;;;12.40;99.90;;;;;;5109659;27;37541;-59
2022/10/14 08:38:03;;;;;;;;;;;12.40;99.90;;;;;;5109137;27;36609;-59
2022/10/14 08:40:33;;;;;;;;;;;12.40;99.90;;;;;;5109118;27;38406;-59
2022/10/14 08:43:01;;;;;;;;;;;12.40;99.90;;;;;;5109056;27;39311;-59
2022/10/14 08:45:32;;;;;;;;;;;12.40;99.90;;;;;;5109615;27;37592;-59
2022/10/14 08:47:59;;;;;;;;;;;12.40;99.90;;;;;;5109172;27;37573;-59
2022/10/14 08:50:30;;;;;;;;;;;12.40;99.90;;;;;;5108577;27;37530;-59
2022/10/14 08:52:59;;;;;;;;;;;12.50;99.90;;;;;;5109406;27;38300;-59
2022/10/14 08:55:32;;;;;;;;;;;12.50;99.90;;;;;;5108200;27;38968;-59
2022/10/14 08:58:01;;;;;;;;;;;12.50;99.90;;;;;;5109657;27;35080;-59
2022/10/14 09:00:29;;;;;;;;;;;12.50;99.90;;;;;;5109607;27;36392;-59
2022/10/14 09:02:58;;;;;;;;;;;12.60;99.90;;;;;;5109769;27;37205;-59
2022/10/14 09:05:27;;;;;;;;;;;12.50;99.90;;;;;;5109483;27;21350;-59
2022/10/14 09:07:56;;;;;;;;;;;12.50;99.90;;;;;;5109066;27;37431;-59
2022/10/14 09:10:26;;;;;;;;;;;12.60;99.90;;;;;;5108182;27;38081;-59
2022/10/14 09:12:56;;;;;;;;;;;12.60;99.90;;;;;;5108807;27;38422;-59
2022/10/14 09:15:26;;;;;;;;;;;12.60;99.90;;;;;;5109331;27;37387;-58
2022/10/14 09:18:01;;;;;;;;;;;12.60;99.90;;;;;;5109409;27;36045;-59
2022/10/14 09:20:28;;;;;;;;;;;12.60;99.90;;;;;;5109381;27;38166;-59
2022/10/14 09:23:00;;;;;;;;;;;12.60;99.90;;;;;;5108352;27;39954;-59
2022/10/14 09:25:28;;;;;;;;;;;12.60;99.90;;;;;;5107934;27;37377;-59
2022/10/14 09:27:56;;;;;;;;;;;12.60;99.90;;;;;;5108048;27;38010;-59
2022/10/14 09:30:23;;;;;;;;;;;12.60;99.90;;;;;;5109872;27;39844;-59
2022/10/14 09:32:51;;;;;;;;;;;12.60;99.90;;;;;;5112545;27;37132;-59
2022/10/14 09:35:22;;;;;;;;;;;12.70;99.90;;;;;;5113105;27;37626;-59
2022/10/14 09:37:49;;;;;;;;;;;12.70;99.90;;;;;;5111540;27;37114;-59
2022/10/14 09:40:17;;;;;;;;;;;12.70;99.90;;;;;;5111419;27;36705;-59
2022/10/14 09:42:48;;;;;;;;;;;12.70;99.90;;;;;;5111115;27;39678;-59
2022/10/14 09:45:17;;;;;;;;;;;12.80;99.90;;;;;;5111334;27;37804;-59
2022/10/14 09:47:49;;;;;;;;;;;12.80;99.90;;;;;;5111343;27;35302;-59
2022/10/14 09:50:24;;;;;;;;;;;12.80;99.90;;;;;;5112061;27;36498;-59
2022/10/14 09:52:52;;;;;;;;;;;12.90;99.90;;;;;;5111094;27;38698;-59
2022/10/14 09:55:22;;;;;;;;;;;12.90;99.90;;;;;;5111172;27;36198;-59
2022/10/14 09:57:57;;;;;;;;;;;12.90;99.90;;;;;;5111862;27;36623;-59
2022/10/14 10:00:27;;;;;;;;;;;12.90;99.90;;;;;;5111473;27;37517;-59
2022/10/14 10:02:55;;;;;;;;;;;12.90;99.90;;;;;;5110200;27;39149;-59
2022/10/14 10:05:23;;;;;;;;;;;12.90;99.90;;;;;;5112090;27;37323;-59
2022/10/14 10:08:00;;;;;;;;;;;12.90;99.90;;;;;;5111567;27;34989;-59
2022/10/14 10:10:29;;;;;;;;;;;12.90;99.90;;;;;;5110657;27;38372;-59
2022/10/14 10:12:56;;;;;;;;;;;13.00;99.90;;;;;;5111882;27;38016;-59
2022/10/14 10:15:24;;;;;;;;;;;13.00;99.90;;;;;;5112860;27;37651;-59
2022/10/14 10:17:52;;;;;;;;;;;13.00;99.90;;;;;;5111913;27;37449;-59
2022/10/14 10:20:22;;;;;;;;;;;13.00;99.90;;;;;;5111535;27;38449;-59
2022/10/14 10:22:50;;;;;;;;;;;13.10;99.90;;;;;;5110733;27;38129;-59
2022/10/14 10:25:25;;;;;;;;;;;13.10;99.90;;;;;;5111417;27;38458;-60
2022/10/14 10:27:53;;;;;;;;;;;13.10;99.90;;;;;;5110323;27;36992;-59
2022/10/14 10:30:22;;;;;;;;;;;13.10;99.90;;;;;;5111223;27;37692;-59
2022/10/14 10:32:54;;;;;;;;;;;13.20;99.90;;;;;;5111262;27;39753;-59
2022/10/14 10:35:27;;;;;;;;;;;13.20;99.90;;;;;;5111457;27;39878;-59
2022/10/14 10:38:04;;;;;;;;;;;13.20;99.90;;;;;;5110651;27;36182;-59
2022/10/14 10:40:34;;;;;;;;;;;13.00;99.90;;;;;;5103517;27;37442;-59
2022/10/14 10:43:12;;;;;;;;;;;13.20;99.90;;;;;;5106709;27;40325;-59
2022/10/14 10:45:48;;;;;;;;;;;13.30;99.90;;;;;;5108841;27;38383;-59
2022/10/14 10:48:19;;;;;;;;;;;13.30;99.90;;;;;;5100604;27;36962;-59
2022/10/14 10:50:56;;;;;;;;;;;13.30;99.90;;;;;;5106556;27;37524;-60
2022/10/14 10:53:32;;;;;;;;;;;13.40;99.90;;;;;;5105508;27;38481;-59
2022/10/14 10:56:09;;;;;;;;;;;13.30;99.90;;;;;;5108867;27;36423;-60
2022/10/14 10:58:48;;;;;;;;;;;13.30;99.90;;;;;;5107339;27;36216;-59
2022/10/14 11:01:25;;;;;;;;;;;13.40;99.90;;;;;;5107519;27;37618;-59
2022/10/14 11:03:58;;;;;;;;;;;13.30;99.90;;;;;;5109168;27;39426;-59
2022/10/14 11:12:11;;;;;;;;;;;13.40;99.90;;;;;;5107929;27;39474;-58
2022/10/14 11:14:53;;;;;;;;;;;13.40;99.90;;;;;;5106378;27;39559;-58
2022/10/14 11:17:26;;;;;;;;;;;13.40;99.90;;;;;;5104506;27;37483;-58
2022/10/14 11:19:56;;;;;;;;;;;13.40;99.90;;;;;;5108932;27;36985;-58
2022/10/14 11:22:29;;;;;;;;;;;13.40;99.90;;;;;;5109139;27;38313;-58
2022/10/14 11:25:02;;;;;;;;;;;13.50;99.90;;;;;;5109065;27;38556;-58
2022/10/14 11:27:34;;;;;;;;;;;13.50;99.90;;;;;;5108433;27;37296;-58
2022/10/14 11:30:07;;;;;;;;;;;13.50;99.90;;;;;;5107312;27;35159;-57
2022/10/14 11:32:39;;;;;;;;;;;13.50;99.90;;;;;;5108875;27;37300;-58
2022/10/14 11:35:15;;;;;;;;;;;13.50;99.90;;;;;;5109735;27;39349;-58
2022/10/14 11:37:48;;;;;;;;;;;13.50;99.90;;;;;;5108667;27;37760;-58
2022/10/14 11:40:20;;;;;;;;;;;13.50;99.90;;;;;;5110202;27;37932;-58
2022/10/14 11:42:55;;;;;;;;;;;13.50;99.90;;;;;;5107955;27;37988;-58
2022/10/14 11:45:39;;;;;;;;;;;13.50;99.90;;;;;;5108773;27;38783;-58
2022/10/14 11:48:14;;;;;;;;;;;13.50;99.90;;;;;;5108835;27;36454;-58
2022/10/14 11:50:42;;;;;;;;;;;13.50;99.90;;;;;;5109162;27;35249;-58
2022/10/14 11:53:13;;;;;;;;;;;13.50;99.90;;;;;;5107555;27;39537;-58
2022/10/14 11:55:42;;;;;;;;;;;13.60;99.90;;;;;;5108228;27;38608;-58
2022/10/14 11:58:13;;;;;;;;;;;13.60;99.90;;;;;;5108313;27;36459;-58
2022/10/14 12:00:40;;;;;;;;;;;13.60;99.90;;;;;;5108662;27;36621;-58
2022/10/14 12:03:11;;;;;;;;;;;13.60;99.90;;;;;;5108906;27;38399;-58
2022/10/14 12:05:40;;;;;;;;;;;13.60;99.90;;;;;;5107779;27;37185;-58
2022/10/14 12:08:14;;;;;;;;;;;13.60;99.90;;;;;;5108666;27;37624;-58
2022/10/14 12:10:44;;;;;;;;;;;13.60;99.90;;;;;;5107540;27;35292;-58
2022/10/14 12:13:13;;;;;;;;;;;13.60;99.90;;;;;;5108361;27;37760;-58
2022/10/14 12:15:43;;;;;;;;;;;13.60;99.90;;;;;;5107860;27;37163;-58
2022/10/14 12:18:11;;;;;;;;;;;13.60;99.90;;;;;;5108924;27;38554;-58
2022/10/14 12:20:43;;;;;;;;;;;13.70;99.90;;;;;;5107733;27;33838;-58
2022/10/14 12:23:12;;;;;;;;;;;13.60;99.90;;;;;;5107491;27;37771;-57
2022/10/14 12:25:46;;;;;;;;;;;13.70;99.90;;;;;;5108502;27;39576;-57
2022/10/14 12:28:16;;;;;;;;;;;13.70;99.90;;;;;;5106249;27;37560;-56
2022/10/14 12:30:44;;;;;;;;;;;13.70;99.90;;;;;;5107100;27;36308;-56
2022/10/14 12:33:11;;;;;;;;;;;13.70;99.90;;;;;;5108392;27;37876;-56
2022/10/14 12:35:47;;;;;;;;;;;13.70;99.90;;;;;;5107976;27;40253;-56
2022/10/14 12:38:14;;;;;;;;;;;13.70;99.90;;;;;;5107017;27;37422;-56
2022/10/14 12:40:41;;;;;;;;;;;13.70;99.90;;;;;;5107979;27;35232;-56
2022/10/14 12:43:17;;;;;;;;;;;13.70;99.90;;;;;;5108359;27;37672;-56
2022/10/14 12:45:58;;;;;;;;;;;13.80;99.90;;;;;;5108700;27;38903;-56
2022/10/14 12:48:26;;;;;;;;;;;13.80;99.90;;;;;;5108454;27;37164;-56
2022/10/14 12:50:56;;;;;;;;;;;13.80;99.90;;;;;;5108603;27;35022;-56
2022/10/14 12:53:24;;;;;;;;;;;13.80;99.90;;;;;;5109180;27;37537;-56
2022/10/14 12:55:52;;;;;;;;;;;13.80;99.90;;;;;;5108449;27;39231;-56
2022/10/14 12:58:24;;;;;;;;;;;13.80;99.90;;;;;;5106895;27;38242;-57
2022/10/14 13:00:55;;;;;;;;;;;13.80;99.90;;;;;;5108219;27;36067;-56
2022/10/14 13:03:25;;;;;;;;;;;13.80;99.90;;;;;;5109209;27;37535;-56
2022/10/14 13:05:52;;;;;;;;;;;13.80;99.90;;;;;;5109542;27;38598;-56
2022/10/14 13:08:26;;;;;;;;;;;13.80;99.90;;;;;;5112104;27;38071;-56
2022/10/14 13:11:11;;;;;;;;;;;13.80;99.90;;;;;;5111665;27;37273;-56
2022/10/14 13:13:51;;;;;;;;;;;13.70;99.90;;;;;;5111443;27;37499;-57
2022/10/14 13:16:36;;;;;;;;;;;13.80;99.90;;;;;;5110815;27;38928;-57
2022/10/14 13:19:04;;;;;;;;;;;13.80;99.90;;;;;;5111255;27;37842;-56
2022/10/14 13:21:52;;;;;;;;;;;13.80;99.90;;;;;;5112346;27;36352;-57
2022/10/14 13:24:25;;;;;;;;;;;13.80;99.90;;;;;;5111310;27;39346;-56
2022/10/14 13:26:58;;;;;;;;;;;13.80;99.90;;;;;;5112006;27;39382;-56
2022/10/14 13:29:31;;;;;;;;;;;13.80;99.90;;;;;;5110886;27;37436;-56
2022/10/14 13:32:01;;;;;;;;;;;13.80;99.90;;;;;;5111755;27;36427;-56
2022/10/14 13:34:33;;;;;;;;;;;13.80;99.90;;;;;;5111059;27;37500;-56
2022/10/14 13:37:17;;;;;;;;;;;13.90;99.90;;;;;;5112051;27;36980;-56
2022/10/14 13:39:44;;;;;;;;;;;13.80;99.90;;;;;;5111469;27;38777;-56
2022/10/14 13:42:13;;;;;;;;;;;13.80;99.90;;;;;;5111641;27;37972;-57
2022/10/14 13:44:43;;;;;;;;;;;13.80;99.90;;;;;;5110362;27;38650;-56
2022/10/14 13:47:12;;;;;;;;;;;13.90;99.90;;;;;;5109805;27;39084;-56
2022/10/14 13:49:39;;;;;;;;;;;13.90;99.90;;;;;;5111801;27;37455;-56
2022/10/14 13:52:09;;;;;;;;;;;13.90;99.90;;;;;;5112065;27;37073;-55
2022/10/14 13:54:36;;;;;;;;;;;13.90;99.90;;;;;;5110719;27;37723;-56
2022/10/14 13:57:04;;;;;;;;;;;13.90;99.90;;;;;;5110391;27;38162;-57
2022/10/14 13:59:31;;;;;;;;;;;14.00;99.90;;;;;;5109818;27;36671;-57
2022/10/14 14:02:02;;;;;;;;;;;13.90;99.90;;;;;;5110586;27;36214;-57
2022/10/14 14:04:31;;;;;;;;;;;13.90;99.90;;;;;;5110064;27;38309;-56
2022/10/14 14:06:58;;;;;;;;;;;13.90;99.90;;;;;;5110113;27;39038;-57
2022/10/14 14:09:27;;;;;;;;;;;14.00;99.90;;;;;;5110452;27;36466;-56
2022/10/14 14:11:55;;;;;;;;;;;14.00;99.90;;;;;;5111298;27;35115;-56
2022/10/14 14:14:23;;;;;;;;;;;14.00;99.90;;;;;;5109414;27;37720;-57
2022/10/14 14:16:52;;;;;;;;;;;14.00;99.90;;;;;;5110781;27;39819;-56
2022/10/14 14:19:21;;;;;;;;;;;14.10;99.90;;;;;;5110728;27;37918;-56
2022/10/14 14:21:48;;;;;;;;;;;14.10;99.90;;;;;;5110280;27;36059;-56
2022/10/14 14:24:17;;;;;;;;;;;14.10;99.90;;;;;;5110004;27;37061;-56
2022/10/14 14:26:45;;;;;;;;;;;14.10;99.90;;;;;;5110302;27;37057;-56
2022/10/14 14:29:15;;;;;;;;;;;14.10;99.90;;;;;;5108284;27;37338;-57
2022/10/14 14:31:43;;;;;;;;;;;14.10;99.90;;;;;;5110284;27;36328;-56
2022/10/14 14:34:12;;;;;;;;;;;14.20;99.90;;;;;;5110555;27;36510;-57